createdAt,value
2018-02-10T00:01:34.390Z,99839.77
2018-02-10T00:04:35.822Z,99838.56
2018-02-10T00:07:37.202Z,99836.53
2018-02-10T00:10:38.613Z,99834.30
2018-02-10T00:13:40.012Z,99831.53
2018-02-10T00:16:41.380Z,99830.12
2018-02-10T00:19:42.759Z,99828.66
2018-02-10T00:22:47.153Z,99829.58
2018-02-10T00:25:48.612Z,99833.18
2018-02-10T00:28:49.966Z,99824.59
2018-02-10T00:31:51.370Z,99825.83
2018-02-10T00:34:52.775Z,99825.91
2018-02-10T00:37:54.896Z,99832.89
2018-02-10T00:40:56.319Z,99820.43
2018-02-10T00:43:57.689Z,99822.89
2018-02-10T00:46:59.086Z,99817.84
2018-02-10T00:50:00.543Z,99822.66
2018-02-10T00:53:01.883Z,99826.97
2018-02-10T00:56:03.310Z,99818.27
2018-02-10T00:59:04.674Z,99817.40
2018-02-10T01:02:06.047Z,99825.59
2018-02-10T01:05:07.442Z,99823.66
2018-02-10T01:08:08.760Z,99832.98
2018-02-10T01:11:10.164Z,99833.68
2018-02-10T01:14:12.312Z,99843.80
2018-02-10T01:17:13.675Z,99833.05
2018-02-10T01:20:15.060Z,99833.01
2018-02-10T01:23:16.447Z,99827.79
2018-02-10T01:26:17.787Z,99832.11
2018-02-10T01:29:19.878Z,99829.14
2018-02-10T01:32:21.950Z,99834.00
2018-02-10T01:35:23.277Z,99842.70
2018-02-10T01:38:24.621Z,99830.82
2018-02-10T01:41:26.261Z,99845.60
2018-02-10T01:44:27.693Z,99841.30
2018-02-10T01:47:29.267Z,99846.81
2018-02-10T01:50:31.684Z,99850.50
2018-02-10T01:53:33.379Z,99851.36
2018-02-10T01:56:34.723Z,99853.53
2018-02-10T01:59:36.049Z,99853.86
2018-02-10T02:02:38.145Z,99857.95
2018-02-10T02:05:39.502Z,99863.47
2018-02-10T02:08:40.876Z,99856.52
2018-02-10T02:11:42.227Z,99846.63
2018-02-10T02:14:43.580Z,99841.80
2018-02-10T02:17:45.725Z,99846.56
2018-02-10T02:20:47.120Z,99841.84
2018-02-10T02:23:48.511Z,99848.34
2018-02-10T02:26:49.876Z,99840.05
2018-02-10T02:29:51.251Z,99848.91
2018-02-10T02:32:52.866Z,99851.61
2018-02-10T02:35:54.245Z,99855.92
2018-02-10T02:38:55.812Z,99860.47
2018-02-10T02:41:57.202Z,99852.67
2018-02-10T02:44:58.570Z,99849.24
2018-02-10T02:48:00.031Z,99841.22
2018-02-10T02:51:02.127Z,99847.40
2018-02-10T02:54:04.201Z,99852.22
2018-02-10T02:57:05.596Z,99851.86
2018-02-10T03:00:07.743Z,99858.20
2018-02-10T03:03:09.104Z,99849.67
2018-02-10T03:06:10.499Z,99849.58
2018-02-10T03:09:11.823Z,99852.44
2018-02-10T03:15:21.169Z,99846.60
2018-02-10T03:18:23.218Z,99851.47
2018-02-10T03:21:24.527Z,99856.37
2018-02-10T03:24:25.859Z,99846.98
2018-02-10T03:27:27.204Z,99851.84
2018-02-10T03:30:29.297Z,99848.39
2018-02-10T03:33:31.438Z,99861.70
2018-02-10T03:36:32.786Z,99847.69
2018-02-10T03:39:34.142Z,99856.42
2018-02-10T03:42:35.490Z,99856.80
2018-02-10T03:45:36.832Z,99859.01
2018-02-10T03:48:38.893Z,99862.55
2018-02-10T03:51:40.233Z,99859.10
2018-02-10T03:54:42.586Z,99858.60
2018-02-10T03:57:43.930Z,99857.25
2018-02-10T04:00:45.232Z,99849.20
2018-02-10T04:03:46.580Z,99858.63
2018-02-10T04:06:47.903Z,99867.80
2018-02-10T04:09:49.233Z,99876.45
2018-02-10T04:12:50.610Z,99876.04
2018-02-10T04:15:51.915Z,99888.61
2018-02-10T04:18:53.240Z,99891.16
2018-02-10T04:21:55.295Z,99889.98
2018-02-10T04:24:56.603Z,99894.36
2018-02-10T04:27:58.064Z,99889.91
2018-02-10T04:30:59.378Z,99884.70
2018-02-10T04:34:01.496Z,99890.88
2018-02-10T04:37:02.876Z,99883.94
2018-02-10T04:40:04.245Z,99881.33
2018-02-10T04:43:06.317Z,99882.33
2018-02-10T04:46:07.760Z,99879.70
2018-02-10T04:49:09.162Z,99883.27
2018-02-10T04:52:10.507Z,99893.09
2018-02-10T04:55:11.837Z,99888.45
2018-02-10T04:58:13.214Z,99897.98
2018-02-10T05:01:14.569Z,99896.66
2018-02-10T05:04:15.903Z,99909.61
2018-02-10T05:07:17.963Z,99911.68
2018-02-10T05:10:19.300Z,99914.63
2018-02-10T05:13:20.684Z,99918.36
2018-02-10T05:16:22.072Z,99922.39
2018-02-10T05:19:23.421Z,99925.58
2018-02-10T05:22:24.754Z,99929.93
2018-02-10T05:25:26.043Z,99935.58
2018-02-10T05:28:28.119Z,99941.12
2018-02-10T05:31:29.440Z,99942.50
2018-02-10T05:34:30.758Z,99932.98
2018-02-10T05:37:32.097Z,99927.38
2018-02-10T05:40:33.421Z,99931.43
2018-02-10T05:43:34.758Z,99923.90
2018-02-10T05:46:36.074Z,99923.69
2018-02-10T05:49:37.480Z,99920.53
2018-02-10T05:52:38.795Z,99915.75
2018-02-10T05:55:40.133Z,99911.69
2018-02-10T05:58:41.460Z,99918.77
2018-02-10T06:01:42.744Z,99914.06
2018-02-10T06:04:44.220Z,99917.69
2018-02-10T06:07:45.516Z,99918.95
2018-02-10T06:10:46.867Z,99928.27
2018-02-10T06:13:48.180Z,99939.44
2018-02-10T06:16:49.673Z,99945.94
2018-02-10T06:19:51.192Z,99944.40
2018-02-10T06:22:53.343Z,99944.61
2018-02-10T06:25:54.631Z,99936.47
2018-02-10T06:28:56.034Z,99930.19
2018-02-10T06:31:57.373Z,99927.95
2018-02-10T06:34:58.742Z,99933.70
2018-02-10T06:38:00.075Z,99921.88
2018-02-10T06:41:01.427Z,99926.19
2018-02-10T06:44:02.712Z,99920.92
2018-02-10T06:47:04.025Z,99922.59
2018-02-10T06:50:05.365Z,99924.20
2018-02-10T06:53:06.712Z,99927.33
2018-02-10T06:56:08.766Z,99926.37
2018-02-10T06:59:10.137Z,99914.66
2018-02-10T07:02:11.622Z,99930.09
2018-02-10T07:05:12.924Z,99922.95
2018-02-10T07:08:14.270Z,99935.30
2018-02-10T07:11:15.602Z,99939.66
2018-02-10T07:14:16.910Z,99946.39
2018-02-10T07:17:18.189Z,99948.90
2018-02-10T07:20:19.495Z,99953.91
2018-02-10T07:23:20.932Z,99946.67
2018-02-10T07:26:22.274Z,99958.92
2018-02-10T07:29:23.620Z,99958.91
2018-02-10T07:32:24.928Z,99942.09
2018-02-10T07:35:26.208Z,99958.39
2018-02-10T07:38:27.545Z,99957.63
2018-02-10T07:41:28.890Z,99961.07
2018-02-10T07:44:30.224Z,99969.13
2018-02-10T07:47:31.543Z,99972.33
2018-02-10T07:50:32.863Z,99978.41
2018-02-10T07:53:34.140Z,99969.75
2018-02-10T07:56:35.470Z,99970.45
2018-02-10T07:59:36.794Z,99969.33
2018-02-10T08:02:38.869Z,99969.59
2018-02-10T08:05:40.173Z,99956.09
2018-02-10T08:08:42.260Z,99965.63
2018-02-10T08:11:44.328Z,99945.06
2018-02-10T08:14:45.619Z,99980.88
2018-02-10T08:17:46.935Z,99972.65
2018-02-10T08:20:48.250Z,99973.81
2018-02-10T08:23:49.660Z,99976.19
2018-02-10T08:26:50.981Z,99984.70
2018-02-10T08:29:52.287Z,99984.11
2018-02-10T08:32:53.631Z,99980.21
2018-02-10T08:35:55.795Z,99982.05
2018-02-10T08:38:57.182Z,99984.34
2018-02-10T08:41:58.501Z,99978.64
2018-02-10T08:44:59.814Z,99994.37
2018-02-10T08:48:01.134Z,99986.03
2018-02-10T08:51:03.187Z,99988.38
2018-02-10T08:54:04.530Z,99988.66
2018-02-10T08:57:05.833Z,99975.23
2018-02-10T09:00:07.154Z,99988.69
2018-02-10T09:03:08.734Z,99986.99
2018-02-10T09:06:10.055Z,99988.38
2018-02-10T09:09:12.096Z,99991.20
2018-02-10T09:12:13.380Z,99995.27
2018-02-10T09:15:14.704Z,99994.41
2018-02-10T09:18:16.735Z,99990.64
2018-02-10T09:21:18.066Z,99993.75
2018-02-10T09:24:19.433Z,99985.79
2018-02-10T09:27:20.713Z,100001.52
2018-02-10T09:30:22.004Z,100010.66
2018-02-10T09:33:23.297Z,100008.05
2018-02-10T09:36:24.661Z,100008.48
2018-02-10T09:39:25.998Z,99988.45
2018-02-10T09:42:27.376Z,100002.52
2018-02-10T09:45:28.704Z,99997.27
2018-02-10T09:48:30.075Z,100011.13
2018-02-10T09:51:31.394Z,100004.21
2018-02-10T09:54:32.820Z,100009.31
2018-02-10T09:57:34.199Z,100004.22
2018-02-10T10:00:35.535Z,99996.80
2018-02-10T10:03:36.918Z,99995.93
2018-02-10T10:06:38.274Z,100022.86
2018-02-10T10:09:40.428Z,99998.97
2018-02-10T10:12:41.748Z,100007.69
2018-02-10T10:15:43.039Z,99997.12
2018-02-10T10:18:45.076Z,100016.89
2018-02-10T10:21:46.423Z,100010.34
2018-02-10T10:24:48.511Z,100004.67
2018-02-10T10:27:49.844Z,100002.05
2018-02-10T10:30:51.194Z,100008.12
2018-02-10T10:33:52.536Z,100007.58
2018-02-10T10:36:53.905Z,100020.68
2018-02-10T10:39:55.696Z,100013.39
2018-02-10T10:42:57.065Z,100015.44
2018-02-10T10:45:58.421Z,100017.06
2018-02-10T10:48:59.728Z,100015.00
2018-02-10T10:52:01.037Z,100004.48
2018-02-10T10:55:02.334Z,99996.78
2018-02-10T10:58:04.414Z,100009.34
2018-02-10T11:01:05.723Z,100004.18
2018-02-10T11:04:07.035Z,100010.56
2018-02-10T11:07:08.360Z,100003.31
2018-02-10T11:10:10.432Z,100006.73
2018-02-10T11:13:11.695Z,99984.55
2018-02-10T11:16:13.147Z,99993.73
2018-02-10T11:19:14.431Z,99999.39
2018-02-10T11:22:15.815Z,99989.39
2018-02-10T11:25:17.041Z,99981.95
2018-02-10T11:28:18.409Z,99976.28
2018-02-10T11:31:19.770Z,99981.52
2018-02-10T11:34:21.082Z,99978.89
2018-02-10T11:37:22.647Z,99981.03
2018-02-10T11:40:23.987Z,99985.87
2018-02-10T11:43:25.309Z,99977.60
2018-02-10T11:46:26.642Z,99993.25
2018-02-10T11:49:27.995Z,99987.11
2018-02-10T11:52:29.341Z,99995.91
2018-02-10T11:55:30.709Z,99981.11
2018-02-10T11:58:32.031Z,99986.22
2018-02-10T12:01:33.459Z,99990.19
2018-02-10T12:04:34.877Z,99982.81
2018-02-10T12:07:36.271Z,99983.72
2018-02-10T12:10:37.641Z,99982.39
2018-02-10T12:13:39.029Z,99984.15
2018-02-10T12:16:40.373Z,99979.36
2018-02-10T12:19:41.686Z,99971.93
2018-02-10T12:22:43.041Z,99973.26
2018-02-10T12:25:44.378Z,99961.02
2018-02-10T12:28:46.492Z,99957.97
2018-02-10T12:31:48.609Z,99960.95
2018-02-10T12:34:49.936Z,99961.81
2018-02-10T12:37:51.313Z,99973.58
2018-02-10T12:40:52.733Z,99966.11
2018-02-10T12:43:54.851Z,99953.14
2018-02-10T12:46:56.206Z,99960.53
2018-02-10T12:49:57.594Z,99960.94
2018-02-10T12:52:58.967Z,99960.59
2018-02-10T12:56:00.323Z,99958.79
2018-02-10T12:59:01.679Z,99951.39
2018-02-10T13:02:03.058Z,99950.10
2018-02-10T13:05:04.439Z,99955.27
2018-02-10T13:08:05.867Z,99957.09
2018-02-10T13:11:07.266Z,99949.23
2018-02-10T13:14:08.630Z,99942.67
2018-02-10T13:17:09.993Z,99946.19
2018-02-10T13:20:11.348Z,99945.30
2018-02-10T13:23:12.717Z,99942.63
2018-02-10T13:26:14.096Z,99944.41
2018-02-10T13:29:15.494Z,99936.08
2018-02-10T13:32:16.818Z,99939.13
2018-02-10T13:35:18.201Z,99922.51
2018-02-10T13:38:19.593Z,99934.40
2018-02-10T13:41:20.965Z,99932.20
2018-02-10T13:44:22.350Z,99927.35
2018-02-10T13:47:23.713Z,99921.72
2018-02-10T13:50:25.068Z,99925.12
2018-02-10T13:53:26.426Z,99925.66
2018-02-10T13:56:27.769Z,99917.79
2018-02-10T13:59:29.907Z,99925.19
2018-02-10T14:02:31.259Z,99922.95
2018-02-10T14:05:32.615Z,99915.52
2018-02-10T14:08:33.959Z,99922.81
2018-02-10T14:11:35.325Z,99921.64
2018-02-10T14:14:38.294Z,99917.77
2018-02-10T14:17:39.635Z,99921.70
2018-02-10T14:20:40.987Z,99922.16
2018-02-10T14:23:42.434Z,99919.95
2018-02-10T14:26:43.818Z,99920.85
2018-02-10T14:29:45.209Z,99919.94
2018-02-10T14:32:46.569Z,99919.53
2018-02-10T14:35:47.948Z,99912.55
2018-02-10T14:38:49.294Z,99911.20
2018-02-10T14:41:51.394Z,99913.37
2018-02-10T14:44:53.494Z,99914.70
2018-02-10T14:47:54.857Z,99915.61
2018-02-10T14:50:56.923Z,99918.20
2018-02-10T14:53:58.325Z,99914.32
2018-02-10T14:56:59.704Z,99911.64
2018-02-10T15:00:01.064Z,99917.35
2018-02-10T15:03:02.412Z,99909.48
2018-02-10T15:06:03.739Z,99919.11
2018-02-10T15:09:05.050Z,99909.90
2018-02-10T15:12:07.172Z,99916.47
2018-02-10T15:15:08.497Z,99909.40
2018-02-10T15:18:09.844Z,99907.53
2018-02-10T15:21:18.054Z,99891.31
2018-02-10T15:24:20.132Z,99909.59
2018-02-10T15:27:21.481Z,99901.93
2018-02-10T15:30:41.201Z,99916.33
2018-02-10T15:34:00.914Z,99902.65
2018-02-10T15:37:02.321Z,99911.98
2018-02-10T15:40:03.678Z,99910.95
2018-02-10T15:43:05.026Z,99906.94
2018-02-10T15:46:06.510Z,99909.56
2018-02-10T15:49:07.967Z,99919.22
2018-02-10T15:52:10.033Z,99912.22
2018-02-10T15:55:11.379Z,99910.91
2018-02-10T15:58:12.719Z,99919.30
2018-02-10T16:01:14.058Z,99908.89
2018-02-10T16:04:15.398Z,99896.55
2018-02-10T16:07:17.517Z,99905.19
2018-02-10T16:10:18.894Z,99903.00
2018-02-10T16:13:20.264Z,99900.81
2018-02-10T16:16:29.425Z,99909.53
2018-02-10T16:19:31.526Z,99895.16
2018-02-10T16:22:33.729Z,99895.59
2018-02-10T16:25:35.841Z,99888.56
2018-02-10T16:28:37.225Z,99878.91
2018-02-10T16:31:38.734Z,99870.01
2018-02-10T16:34:40.169Z,99875.09
2018-02-10T16:37:42.272Z,99866.06
2018-02-10T16:40:44.462Z,99864.59
2018-02-10T16:43:46.555Z,99865.91
2018-02-10T16:46:47.893Z,99850.60
2018-02-10T16:49:49.265Z,99856.76
2018-02-10T16:52:50.605Z,99847.51
2018-02-10T16:55:52.695Z,99840.47
2018-02-10T16:58:54.189Z,99846.63
2018-02-10T17:01:56.282Z,99848.95
2018-02-10T17:08:06.273Z,99862.72
2018-02-10T17:11:07.689Z,99851.91
2018-02-10T17:14:09.041Z,99853.26
2018-02-10T17:17:10.362Z,99846.43
2018-02-10T17:20:12.436Z,99854.66
2018-02-10T17:23:13.740Z,99843.98
2018-02-10T17:26:15.794Z,99840.79
2018-02-10T17:29:17.134Z,99845.91
2018-02-10T17:35:26.429Z,99851.72
2018-02-10T17:38:28.532Z,99840.47
2018-02-10T17:41:30.598Z,99834.81
2018-02-10T17:44:31.966Z,99837.50
2018-02-10T17:47:33.392Z,99836.17
2018-02-10T17:50:34.878Z,99831.80
2018-02-10T17:53:36.305Z,99827.44
2018-02-10T17:56:37.672Z,99833.13
2018-02-10T17:59:39.082Z,99827.44
2018-02-10T18:02:41.785Z,99833.07
2018-02-10T18:05:43.451Z,99827.82
2018-02-10T18:08:45.098Z,99823.53
2018-02-10T18:11:46.395Z,99828.27
2018-02-10T18:14:47.716Z,99830.09
2018-02-10T18:17:49.012Z,99832.25
2018-02-10T18:20:50.354Z,99823.03
2018-02-10T18:23:52.425Z,99820.45
2018-02-10T18:26:53.790Z,99819.16
2018-02-10T18:29:55.116Z,99823.10
2018-02-10T18:32:57.203Z,99811.33
2018-02-10T18:35:59.291Z,99808.69
2018-02-10T18:39:01.408Z,99806.03
2018-02-10T18:42:03.567Z,99803.47
2018-02-10T18:45:04.876Z,99804.77
2018-02-10T18:48:06.924Z,99812.20
2018-02-10T18:51:08.294Z,99808.23
2018-02-10T18:54:10.428Z,99811.25
2018-02-10T18:57:18.688Z,99812.16
2018-02-10T19:00:20.769Z,99812.19
2018-02-10T19:03:22.067Z,99809.13
2018-02-10T19:06:24.164Z,99798.23
2018-02-10T19:09:26.348Z,99788.16
2018-02-10T19:12:27.640Z,99785.50
2018-02-10T19:15:29.756Z,99770.24
2018-02-10T19:18:31.129Z,99765.52
2018-02-10T19:21:33.213Z,99766.78
2018-02-10T19:24:34.574Z,99775.52
2018-02-10T19:27:35.912Z,99765.91
2018-02-10T19:30:37.247Z,99766.39
2018-02-10T19:33:38.563Z,99777.20
2018-02-10T19:36:39.860Z,99761.61
2018-02-10T19:39:41.178Z,99756.38
2018-02-10T19:42:42.502Z,99754.61
2018-02-10T19:45:43.814Z,99750.84
2018-02-10T19:48:45.203Z,99749.31
2018-02-10T19:51:46.497Z,99739.35
2018-02-10T19:54:47.821Z,99727.14
2018-02-10T19:57:49.127Z,99724.80
2018-02-10T20:00:50.560Z,99729.06
2018-02-10T20:03:51.886Z,99715.41
2018-02-10T20:06:53.228Z,99710.98
2018-02-10T20:09:55.014Z,99707.09
2018-02-10T20:12:56.647Z,99702.31
2018-02-10T20:15:58.019Z,99706.67
2018-02-10T20:18:59.327Z,99712.30
2018-02-10T20:22:00.857Z,99699.70
2018-02-10T20:25:02.196Z,99696.63
2018-02-10T20:28:03.709Z,99690.98
2018-02-10T20:31:05.180Z,99687.02
2018-02-10T20:34:06.627Z,99680.05
2018-02-10T20:37:07.976Z,99684.44
2018-02-10T20:40:09.374Z,99680.06
2018-02-10T20:43:10.726Z,99690.53
2018-02-10T20:46:12.802Z,99686.19
2018-02-10T20:49:14.130Z,99666.14
2018-02-10T20:52:16.171Z,99652.08
2018-02-10T20:55:17.479Z,99650.84
2018-02-10T20:58:18.827Z,99646.92
2018-02-10T21:01:20.191Z,99653.39
2018-02-10T21:04:21.674Z,99652.54
2018-02-10T21:07:22.972Z,99632.42
2018-02-10T21:10:24.323Z,99633.63
2018-02-10T21:13:25.733Z,99625.59
2018-02-10T21:16:27.036Z,99617.71
2018-02-10T21:19:28.444Z,99627.80
2018-02-10T21:22:29.739Z,99621.27
2018-02-10T21:25:31.074Z,99607.28
2018-02-10T21:28:32.375Z,99602.50
2018-02-10T21:31:33.705Z,99592.91
2018-02-10T21:34:35.725Z,99587.27
2018-02-10T21:37:37.011Z,99594.49
2018-02-10T21:40:38.330Z,99594.12
2018-02-10T21:43:39.856Z,99596.52
2018-02-10T21:46:41.185Z,99582.91
2018-02-10T21:49:42.473Z,99578.52
2018-02-10T21:52:43.808Z,99584.15
2018-02-10T21:55:45.107Z,99578.09
2018-02-10T21:58:46.528Z,99563.28
2018-02-10T22:01:48.602Z,99562.41
2018-02-10T22:04:49.938Z,99561.55
2018-02-10T22:07:51.326Z,99548.88
2018-02-10T22:10:53.104Z,99550.09
2018-02-10T22:13:54.472Z,99537.94
2018-02-10T22:16:55.824Z,99540.62
2018-02-10T22:19:57.193Z,99531.03
2018-02-10T22:22:58.570Z,99515.20
2018-02-10T22:25:59.910Z,99501.27
2018-02-10T22:29:01.215Z,99506.02
2018-02-10T22:32:02.558Z,99489.11
2018-02-10T22:35:03.930Z,99482.64
2018-02-10T22:38:06.035Z,99469.38
2018-02-10T22:41:08.104Z,99464.15
2018-02-10T22:44:09.472Z,99477.00
2018-02-10T22:47:11.155Z,99445.59
2018-02-10T22:50:12.629Z,99455.42
2018-02-10T22:53:13.968Z,99450.72
2018-02-10T22:56:16.070Z,99448.08
2018-02-10T22:59:17.379Z,99447.23
2018-02-10T23:02:18.731Z,99433.74
2018-02-10T23:05:20.091Z,99417.92
2018-02-10T23:08:22.156Z,99409.49
2018-02-10T23:11:23.591Z,99403.89
2018-02-10T23:14:24.929Z,99397.16
2018-02-10T23:17:26.239Z,99395.84
2018-02-10T23:20:28.358Z,99380.55
2018-02-10T23:23:29.721Z,99370.49
2018-02-10T23:26:31.848Z,99368.02
2018-02-10T23:29:33.459Z,99345.34
2018-02-10T23:32:35.128Z,99358.83
2018-02-10T23:35:37.634Z,99352.66
2018-02-10T23:38:39.010Z,99345.59
2018-02-10T23:41:40.366Z,99328.04
2018-02-10T23:44:42.462Z,99322.07
2018-02-10T23:47:43.910Z,99323.16
2018-02-10T23:50:45.239Z,99305.31
2018-02-10T23:53:47.293Z,99300.16
2018-02-10T23:56:48.633Z,99290.79
2018-02-10T23:59:50.006Z,99291.87
